sensor_id;sensor_type;location;lat;lon;timestamp;P1;durP1;ratioP1;P2;durP2;ratioP2
53961;SDS011;39868;53.398;6.564;2023-04-15T00:00:55;4.10;;;1.93;;
53961;SDS011;39868;53.398;6.564;2023-04-15T00:03:24;3.87;;;1.93;;
53961;SDS011;39868;53.398;6.564;2023-04-15T00:05:52;3.40;;;1.83;;
53961;SDS011;39868;53.398;6.564;2023-04-15T00:08:19;4.33;;;1.90;;
53961;SDS011;39868;53.398;6.564;2023-04-15T00:10:47;4.63;;;2.13;;
53961;SDS011;39868;53.398;6.564;2023-04-15T00:13:14;3.90;;;1.90;;
53961;SDS011;39868;53.398;6.564;2023-04-15T00:15:42;3.10;;;1.50;;
53961;SDS011;39868;53.398;6.564;2023-04-15T00:18:09;4.20;;;2.00;;
53961;SDS011;39868;53.398;6.564;2023-04-15T00:20:36;2.93;;;1.57;;
53961;SDS011;39868;53.398;6.564;2023-04-15T00:23:03;6.87;;;2.37;;
53961;SDS011;39868;53.398;6.564;2023-04-15T00:25:31;5.80;;;2.47;;
53961;SDS011;39868;53.398;6.564;2023-04-15T00:27:58;6.43;;;2.40;;
53961;SDS011;39868;53.398;6.564;2023-04-15T00:30:25;5.07;;;2.60;;
53961;SDS011;39868;53.398;6.564;2023-04-15T00:32:53;5.63;;;2.93;;
53961;SDS011;39868;53.398;6.564;2023-04-15T00:35:21;6.20;;;2.97;;
53961;SDS011;39868;53.398;6.564;2023-04-15T00:37:49;8.00;;;3.07;;
53961;SDS011;39868;53.398;6.564;2023-04-15T00:40:17;3.87;;;2.60;;
53961;SDS011;39868;53.398;6.564;2023-04-15T00:42:46;6.87;;;2.77;;
53961;SDS011;39868;53.398;6.564;2023-04-15T00:45:14;6.07;;;3.20;;
53961;SDS011;39868;53.398;6.564;2023-04-15T00:47:41;8.33;;;2.93;;
53961;SDS011;39868;53.398;6.564;2023-04-15T00:50:11;6.63;;;3.13;;
53961;SDS011;39868;53.398;6.564;2023-04-15T00:52:39;9.60;;;3.00;;
53961;SDS011;39868;53.398;6.564;2023-04-15T00:55:07;4.40;;;2.73;;
53961;SDS011;39868;53.398;6.564;2023-04-15T00:57:35;6.13;;;3.33;;
53961;SDS011;39868;53.398;6.564;2023-04-15T01:00:04;6.57;;;2.97;;
53961;SDS011;39868;53.398;6.564;2023-04-15T01:02:33;7.63;;;3.43;;
53961;SDS011;39868;53.398;6.564;2023-04-15T01:05:02;6.33;;;3.20;;
53961;SDS011;39868;53.398;6.564;2023-04-15T01:07:30;6.93;;;3.40;;
53961;SDS011;39868;53.398;6.564;2023-04-15T01:09:58;6.67;;;3.07;;
53961;SDS011;39868;53.398;6.564;2023-04-15T01:12:25;6.23;;;2.50;;
53961;SDS011;39868;53.398;6.564;2023-04-15T01:14:54;8.23;;;2.93;;
53961;SDS011;39868;53.398;6.564;2023-04-15T01:17:23;4.80;;;2.70;;
53961;SDS011;39868;53.398;6.564;2023-04-15T01:19:51;4.73;;;2.83;;
53961;SDS011;39868;53.398;6.564;2023-04-15T01:22:21;5.57;;;2.80;;
53961;SDS011;39868;53.398;6.564;2023-04-15T01:25:12;6.07;;;2.47;;
53961;SDS011;39868;53.398;6.564;2023-04-15T01:27:39;3.90;;;2.30;;
53961;SDS011;39868;53.398;6.564;2023-04-15T01:30:08;5.23;;;2.23;;
53961;SDS011;39868;53.398;6.564;2023-04-15T01:32:36;6.23;;;3.00;;
53961;SDS011;39868;53.398;6.564;2023-04-15T01:35:03;9.83;;;3.00;;
53961;SDS011;39868;53.398;6.564;2023-04-15T01:37:31;6.33;;;3.40;;
53961;SDS011;39868;53.398;6.564;2023-04-15T01:39:59;6.67;;;3.23;;
53961;SDS011;39868;53.398;6.564;2023-04-15T01:42:26;5.83;;;2.80;;
53961;SDS011;39868;53.398;6.564;2023-04-15T01:44:54;7.03;;;3.53;;
53961;SDS011;39868;53.398;6.564;2023-04-15T01:47:21;8.63;;;3.97;;
53961;SDS011;39868;53.398;6.564;2023-04-15T01:49:49;6.70;;;3.77;;
53961;SDS011;39868;53.398;6.564;2023-04-15T01:52:16;5.67;;;3.03;;
53961;SDS011;39868;53.398;6.564;2023-04-15T01:54:44;5.43;;;3.00;;
53961;SDS011;39868;53.398;6.564;2023-04-15T01:57:11;7.73;;;3.57;;
53961;SDS011;39868;53.398;6.564;2023-04-15T01:59:39;4.50;;;2.70;;
53961;SDS011;39868;53.398;6.564;2023-04-15T02:02:06;5.63;;;2.77;;
53961;SDS011;39868;53.398;6.564;2023-04-15T02:04:34;5.33;;;2.90;;
53961;SDS011;39868;53.398;6.564;2023-04-15T02:07:01;7.07;;;3.40;;
53961;SDS011;39868;53.398;6.564;2023-04-15T02:09:28;5.83;;;3.50;;
53961;SDS011;39868;53.398;6.564;2023-04-15T02:11:55;6.70;;;3.30;;
53961;SDS011;39868;53.398;6.564;2023-04-15T02:14:23;7.03;;;3.40;;
53961;SDS011;39868;53.398;6.564;2023-04-15T02:16:53;7.03;;;3.23;;
53961;SDS011;39868;53.398;6.564;2023-04-15T02:19:20;8.67;;;3.90;;
53961;SDS011;39868;53.398;6.564;2023-04-15T02:21:47;9.37;;;3.70;;
53961;SDS011;39868;53.398;6.564;2023-04-15T02:24:16;8.37;;;3.23;;
53961;SDS011;39868;53.398;6.564;2023-04-15T02:26:43;5.73;;;2.87;;
53961;SDS011;39868;53.398;6.564;2023-04-15T02:29:14;6.00;;;3.20;;
53961;SDS011;39868;53.398;6.564;2023-04-15T02:31:41;8.57;;;3.50;;
53961;SDS011;39868;53.398;6.564;2023-04-15T02:34:09;5.00;;;3.20;;
53961;SDS011;39868;53.398;6.564;2023-04-15T02:36:37;8.00;;;3.63;;
53961;SDS011;39868;53.398;6.564;2023-04-15T02:39:06;8.37;;;3.57;;
53961;SDS011;39868;53.398;6.564;2023-04-15T02:41:33;7.73;;;3.73;;
53961;SDS011;39868;53.398;6.564;2023-04-15T02:44:02;8.20;;;4.33;;
53961;SDS011;39868;53.398;6.564;2023-04-15T02:46:29;9.93;;;4.43;;
53961;SDS011;39868;53.398;6.564;2023-04-15T02:48:57;7.63;;;3.97;;
53961;SDS011;39868;53.398;6.564;2023-04-15T02:51:29;8.63;;;4.23;;
53961;SDS011;39868;53.398;6.564;2023-04-15T02:53:59;9.63;;;4.03;;
53961;SDS011;39868;53.398;6.564;2023-04-15T02:56:27;7.93;;;4.47;;
53961;SDS011;39868;53.398;6.564;2023-04-15T02:58:55;10.93;;;4.60;;
53961;SDS011;39868;53.398;6.564;2023-04-15T03:01:24;13.43;;;5.00;;
53961;SDS011;39868;53.398;6.564;2023-04-15T03:03:51;8.17;;;4.30;;
53961;SDS011;39868;53.398;6.564;2023-04-15T03:06:19;11.83;;;5.13;;
53961;SDS011;39868;53.398;6.564;2023-04-15T03:08:49;7.93;;;4.67;;
53961;SDS011;39868;53.398;6.564;2023-04-15T03:11:16;10.57;;;4.90;;
53961;SDS011;39868;53.398;6.564;2023-04-15T03:13:45;8.30;;;4.10;;
53961;SDS011;39868;53.398;6.564;2023-04-15T03:16:27;8.85;;;4.80;;
53961;SDS011;39868;53.398;6.564;2023-04-15T03:18:56;9.57;;;4.80;;
53961;SDS011;39868;53.398;6.564;2023-04-15T03:21:24;12.60;;;5.27;;
53961;SDS011;39868;53.398;6.564;2023-04-15T03:23:52;10.00;;;4.73;;
53961;SDS011;39868;53.398;6.564;2023-04-15T03:26:23;8.70;;;4.70;;
53961;SDS011;39868;53.398;6.564;2023-04-15T03:28:54;10.13;;;4.97;;
53961;SDS011;39868;53.398;6.564;2023-04-15T03:31:22;11.70;;;5.03;;
53961;SDS011;39868;53.398;6.564;2023-04-15T03:33:49;12.33;;;5.73;;
53961;SDS011;39868;53.398;6.564;2023-04-15T03:36:17;10.33;;;5.00;;
53961;SDS011;39868;53.398;6.564;2023-04-15T03:38:44;8.77;;;4.70;;
53961;SDS011;39868;53.398;6.564;2023-04-15T03:41:11;10.30;;;4.80;;
53961;SDS011;39868;53.398;6.564;2023-04-15T03:43:39;7.50;;;3.77;;
53961;SDS011;39868;53.398;6.564;2023-04-15T03:46:06;9.93;;;4.20;;
53961;SDS011;39868;53.398;6.564;2023-04-15T03:48:34;8.97;;;4.17;;
53961;SDS011;39868;53.398;6.564;2023-04-15T03:51:01;7.60;;;3.90;;
53961;SDS011;39868;53.398;6.564;2023-04-15T03:53:29;8.90;;;3.90;;
53961;SDS011;39868;53.398;6.564;2023-04-15T03:55:56;6.73;;;3.60;;
53961;SDS011;39868;53.398;6.564;2023-04-15T03:58:23;7.30;;;3.53;;
53961;SDS011;39868;53.398;6.564;2023-04-15T04:00:50;6.60;;;3.30;;
53961;SDS011;39868;53.398;6.564;2023-04-15T04:03:18;5.70;;;3.30;;
53961;SDS011;39868;53.398;6.564;2023-04-15T04:05:45;7.53;;;2.87;;
53961;SDS011;39868;53.398;6.564;2023-04-15T04:08:13;6.03;;;3.03;;
53961;SDS011;39868;53.398;6.564;2023-04-15T04:10:41;5.47;;;3.23;;
53961;SDS011;39868;53.398;6.564;2023-04-15T04:13:09;5.73;;;3.00;;
53961;SDS011;39868;53.398;6.564;2023-04-15T04:15:36;3.80;;;2.43;;
53961;SDS011;39868;53.398;6.564;2023-04-15T04:18:04;5.77;;;2.43;;
53961;SDS011;39868;53.398;6.564;2023-04-15T04:20:31;5.47;;;2.87;;
53961;SDS011;39868;53.398;6.564;2023-04-15T04:22:59;4.60;;;2.40;;
53961;SDS011;39868;53.398;6.564;2023-04-15T04:25:26;4.67;;;2.60;;
53961;SDS011;39868;53.398;6.564;2023-04-15T04:27:53;4.33;;;2.50;;
53961;SDS011;39868;53.398;6.564;2023-04-15T04:30:21;7.00;;;3.30;;
53961;SDS011;39868;53.398;6.564;2023-04-15T04:32:48;4.93;;;2.93;;
53961;SDS011;39868;53.398;6.564;2023-04-15T04:35:17;5.80;;;3.57;;
53961;SDS011;39868;53.398;6.564;2023-04-15T04:37:44;7.33;;;3.70;;
53961;SDS011;39868;53.398;6.564;2023-04-15T04:40:11;8.17;;;4.50;;
53961;SDS011;39868;53.398;6.564;2023-04-15T04:42:39;8.17;;;4.27;;
53961;SDS011;39868;53.398;6.564;2023-04-15T04:45:07;12.90;;;5.43;;
53961;SDS011;39868;53.398;6.564;2023-04-15T04:47:34;9.57;;;4.67;;
53961;SDS011;39868;53.398;6.564;2023-04-15T04:50:02;11.23;;;4.80;;
53961;SDS011;39868;53.398;6.564;2023-04-15T04:52:30;11.27;;;4.83;;
53961;SDS011;39868;53.398;6.564;2023-04-15T04:54:57;11.33;;;4.93;;
53961;SDS011;39868;53.398;6.564;2023-04-15T04:57:24;12.23;;;5.67;;
53961;SDS011;39868;53.398;6.564;2023-04-15T04:59:52;13.60;;;5.60;;
53961;SDS011;39868;53.398;6.564;2023-04-15T05:02:19;15.80;;;5.70;;
53961;SDS011;39868;53.398;6.564;2023-04-15T05:04:47;11.87;;;5.47;;
53961;SDS011;39868;53.398;6.564;2023-04-15T05:07:15;11.80;;;5.60;;
53961;SDS011;39868;53.398;6.564;2023-04-15T05:09:43;13.47;;;5.80;;
53961;SDS011;39868;53.398;6.564;2023-04-15T05:12:10;12.07;;;5.50;;
53961;SDS011;39868;53.398;6.564;2023-04-15T05:14:40;14.50;;;5.60;;
53961;SDS011;39868;53.398;6.564;2023-04-15T05:17:08;12.67;;;5.47;;
53961;SDS011;39868;53.398;6.564;2023-04-15T05:19:35;10.83;;;5.03;;
53961;SDS011;39868;53.398;6.564;2023-04-15T05:22:02;14.40;;;5.27;;
53961;SDS011;39868;53.398;6.564;2023-04-15T05:24:30;9.50;;;4.77;;
53961;SDS011;39868;53.398;6.564;2023-04-15T05:26:57;11.50;;;5.27;;
53961;SDS011;39868;53.398;6.564;2023-04-15T05:29:24;16.13;;;5.97;;
53961;SDS011;39868;53.398;6.564;2023-04-15T05:31:51;10.60;;;5.17;;
53961;SDS011;39868;53.398;6.564;2023-04-15T05:34:19;10.73;;;4.60;;
53961;SDS011;39868;53.398;6.564;2023-04-15T05:36:46;12.70;;;5.00;;
53961;SDS011;39868;53.398;6.564;2023-04-15T05:39:13;14.83;;;4.43;;
53961;SDS011;39868;53.398;6.564;2023-04-15T05:41:41;10.57;;;5.17;;
53961;SDS011;39868;53.398;6.564;2023-04-15T05:44:08;8.47;;;3.77;;
53961;SDS011;39868;53.398;6.564;2023-04-15T05:46:35;8.13;;;3.90;;
53961;SDS011;39868;53.398;6.564;2023-04-15T05:49:03;9.83;;;4.10;;
53961;SDS011;39868;53.398;6.564;2023-04-15T05:51:30;8.17;;;3.97;;
53961;SDS011;39868;53.398;6.564;2023-04-15T05:53:58;9.60;;;4.60;;
53961;SDS011;39868;53.398;6.564;2023-04-15T05:56:25;14.97;;;4.87;;
53961;SDS011;39868;53.398;6.564;2023-04-15T05:58:52;11.43;;;5.40;;
53961;SDS011;39868;53.398;6.564;2023-04-15T06:01:20;12.20;;;5.40;;
53961;SDS011;39868;53.398;6.564;2023-04-15T06:03:47;14.03;;;5.03;;
53961;SDS011;39868;53.398;6.564;2023-04-15T06:06:15;14.13;;;5.80;;
53961;SDS011;39868;53.398;6.564;2023-04-15T06:08:43;14.03;;;6.07;;
53961;SDS011;39868;53.398;6.564;2023-04-15T06:11:10;10.93;;;5.73;;
53961;SDS011;39868;53.398;6.564;2023-04-15T06:13:37;12.93;;;5.77;;
53961;SDS011;39868;53.398;6.564;2023-04-15T06:16:05;11.23;;;5.80;;
53961;SDS011;39868;53.398;6.564;2023-04-15T06:18:33;12.77;;;6.23;;
53961;SDS011;39868;53.398;6.564;2023-04-15T06:21:00;12.30;;;5.37;;
53961;SDS011;39868;53.398;6.564;2023-04-15T06:23:28;8.90;;;5.37;;
53961;SDS011;39868;53.398;6.564;2023-04-15T06:25:55;10.93;;;5.53;;
53961;SDS011;39868;53.398;6.564;2023-04-15T06:28:22;11.27;;;5.47;;
53961;SDS011;39868;53.398;6.564;2023-04-15T06:30:50;15.57;;;5.70;;
53961;SDS011;39868;53.398;6.564;2023-04-15T06:33:18;12.40;;;5.30;;
53961;SDS011;39868;53.398;6.564;2023-04-15T06:35:45;9.80;;;4.83;;
53961;SDS011;39868;53.398;6.564;2023-04-15T06:38:13;10.43;;;5.10;;
53961;SDS011;39868;53.398;6.564;2023-04-15T06:40:40;10.70;;;4.63;;
53961;SDS011;39868;53.398;6.564;2023-04-15T06:43:08;8.37;;;4.40;;
53961;SDS011;39868;53.398;6.564;2023-04-15T06:45:35;8.90;;;5.07;;
53961;SDS011;39868;53.398;6.564;2023-04-15T06:48:03;6.23;;;3.50;;
53961;SDS011;39868;53.398;6.564;2023-04-15T06:50:30;7.63;;;4.00;;
53961;SDS011;39868;53.398;6.564;2023-04-15T06:52:58;8.90;;;3.73;;
53961;SDS011;39868;53.398;6.564;2023-04-15T06:55:25;6.17;;;3.37;;
53961;SDS011;39868;53.398;6.564;2023-04-15T06:57:53;8.90;;;4.03;;
53961;SDS011;39868;53.398;6.564;2023-04-15T07:00:20;6.57;;;3.67;;
53961;SDS011;39868;53.398;6.564;2023-04-15T07:02:47;7.23;;;3.80;;
53961;SDS011;39868;53.398;6.564;2023-04-15T07:05:15;9.80;;;4.93;;
53961;SDS011;39868;53.398;6.564;2023-04-15T07:07:42;10.17;;;4.57;;
53961;SDS011;39868;53.398;6.564;2023-04-15T07:10:10;9.80;;;4.53;;
53961;SDS011;39868;53.398;6.564;2023-04-15T07:12:38;9.53;;;4.57;;
53961;SDS011;39868;53.398;6.564;2023-04-15T07:15:05;11.27;;;5.40;;
53961;SDS011;39868;53.398;6.564;2023-04-15T07:17:33;9.87;;;4.03;;
53961;SDS011;39868;53.398;6.564;2023-04-15T07:20:01;9.20;;;4.80;;
53961;SDS011;39868;53.398;6.564;2023-04-15T07:22:32;8.93;;;4.13;;
53961;SDS011;39868;53.398;6.564;2023-04-15T07:24:59;10.47;;;5.30;;
53961;SDS011;39868;53.398;6.564;2023-04-15T07:27:27;10.87;;;4.63;;
53961;SDS011;39868;53.398;6.564;2023-04-15T07:29:54;9.10;;;4.60;;
53961;SDS011;39868;53.398;6.564;2023-04-15T07:32:22;8.17;;;4.10;;
53961;SDS011;39868;53.398;6.564;2023-04-15T07:34:49;8.67;;;4.93;;
53961;SDS011;39868;53.398;6.564;2023-04-15T07:37:16;11.83;;;4.70;;
53961;SDS011;39868;53.398;6.564;2023-04-15T07:39:44;11.07;;;4.67;;
53961;SDS011;39868;53.398;6.564;2023-04-15T07:42:11;8.70;;;4.07;;
53961;SDS011;39868;53.398;6.564;2023-04-15T07:44:39;7.63;;;4.07;;
53961;SDS011;39868;53.398;6.564;2023-04-15T07:47:06;7.27;;;3.73;;
53961;SDS011;39868;53.398;6.564;2023-04-15T07:49:34;9.93;;;4.50;;
53961;SDS011;39868;53.398;6.564;2023-04-15T07:52:01;10.17;;;3.83;;
53961;SDS011;39868;53.398;6.564;2023-04-15T07:54:29;8.63;;;4.07;;
53961;SDS011;39868;53.398;6.564;2023-04-15T07:56:56;7.53;;;3.67;;
53961;SDS011;39868;53.398;6.564;2023-04-15T07:59:24;6.97;;;3.37;;
53961;SDS011;39868;53.398;6.564;2023-04-15T08:01:53;5.80;;;3.10;;
53961;SDS011;39868;53.398;6.564;2023-04-15T08:04:20;5.40;;;3.40;;
53961;SDS011;39868;53.398;6.564;2023-04-15T08:06:48;4.93;;;2.83;;
53961;SDS011;39868;53.398;6.564;2023-04-15T08:09:16;4.80;;;2.50;;
53961;SDS011;39868;53.398;6.564;2023-04-15T08:11:43;4.70;;;2.60;;
53961;SDS011;39868;53.398;6.564;2023-04-15T08:14:11;6.27;;;3.00;;
53961;SDS011;39868;53.398;6.564;2023-04-15T08:16:39;4.83;;;2.50;;
53961;SDS011;39868;53.398;6.564;2023-04-15T08:19:06;6.50;;;2.90;;
53961;SDS011;39868;53.398;6.564;2023-04-15T08:21:34;6.47;;;2.70;;
53961;SDS011;39868;53.398;6.564;2023-04-15T08:24:02;7.67;;;2.90;;
53961;SDS011;39868;53.398;6.564;2023-04-15T08:26:29;4.17;;;2.43;;
53961;SDS011;39868;53.398;6.564;2023-04-15T08:28:57;2.90;;;2.43;;
53961;SDS011;39868;53.398;6.564;2023-04-15T08:31:25;5.90;;;2.50;;
53961;SDS011;39868;53.398;6.564;2023-04-15T08:33:53;6.97;;;2.23;;
53961;SDS011;39868;53.398;6.564;2023-04-15T08:36:23;7.20;;;3.13;;
53961;SDS011;39868;53.398;6.564;2023-04-15T08:38:50;7.00;;;2.73;;
53961;SDS011;39868;53.398;6.564;2023-04-15T08:41:21;4.33;;;2.50;;
53961;SDS011;39868;53.398;6.564;2023-04-15T08:43:57;7.30;;;2.50;;
53961;SDS011;39868;53.398;6.564;2023-04-15T08:46:30;6.57;;;2.43;;
53961;SDS011;39868;53.398;6.564;2023-04-15T08:49:02;4.70;;;2.63;;
53961;SDS011;39868;53.398;6.564;2023-04-15T08:51:30;7.20;;;2.30;;
53961;SDS011;39868;53.398;6.564;2023-04-15T08:53:59;2.37;;;1.93;;
53961;SDS011;39868;53.398;6.564;2023-04-15T08:56:30;2.87;;;1.77;;
53961;SDS011;39868;53.398;6.564;2023-04-15T08:58:58;2.50;;;1.80;;
53961;SDS011;39868;53.398;6.564;2023-04-15T09:01:26;3.53;;;2.33;;
53961;SDS011;39868;53.398;6.564;2023-04-15T09:03:55;4.60;;;1.80;;
53961;SDS011;39868;53.398;6.564;2023-04-15T09:06:23;3.90;;;1.97;;
53961;SDS011;39868;53.398;6.564;2023-04-15T09:08:52;3.50;;;1.73;;
53961;SDS011;39868;53.398;6.564;2023-04-15T09:11:20;3.40;;;1.53;;
53961;SDS011;39868;53.398;6.564;2023-04-15T09:13:48;3.20;;;1.93;;
53961;SDS011;39868;53.398;6.564;2023-04-15T09:16:16;5.07;;;1.70;;
53961;SDS011;39868;53.398;6.564;2023-04-15T09:18:44;2.33;;;1.60;;
53961;SDS011;39868;53.398;6.564;2023-04-15T09:21:15;2.60;;;1.67;;
53961;SDS011;39868;53.398;6.564;2023-04-15T09:23:54;1.73;;;1.47;;
53961;SDS011;39868;53.398;6.564;2023-04-15T09:26:35;5.88;;;1.45;;
53961;SDS011;39868;53.398;6.564;2023-04-15T09:29:09;1.30;;;1.20;;
53961;SDS011;39868;53.398;6.564;2023-04-15T09:31:40;3.00;;;1.40;;
53961;SDS011;39868;53.398;6.564;2023-04-15T09:34:09;1.70;;;1.30;;
53961;SDS011;39868;53.398;6.564;2023-04-15T09:39:16;4.90;;;1.30;;
53961;SDS011;39868;53.398;6.564;2023-04-15T09:41:43;1.73;;;1.20;;
53961;SDS011;39868;53.398;6.564;2023-04-15T09:44:23;4.93;;;1.90;;
53961;SDS011;39868;53.398;6.564;2023-04-15T09:46:51;6.35;;;1.92;;
53961;SDS011;39868;53.398;6.564;2023-04-15T09:49:19;5.03;;;1.90;;
53961;SDS011;39868;53.398;6.564;2023-04-15T09:51:46;5.28;;;1.60;;
53961;SDS011;39868;53.398;6.564;2023-04-15T09:54:34;5.72;;;1.65;;
53961;SDS011;39868;53.398;6.564;2023-04-15T09:57:08;2.28;;;1.75;;
53961;SDS011;39868;53.398;6.564;2023-04-15T09:59:36;2.28;;;1.70;;
53961;SDS011;39868;53.398;6.564;2023-04-15T10:02:03;3.17;;;1.40;;
53961;SDS011;39868;53.398;6.564;2023-04-15T10:04:35;5.05;;;1.73;;
53961;SDS011;39868;53.398;6.564;2023-04-15T10:07:07;3.95;;;1.80;;
53961;SDS011;39868;53.398;6.564;2023-04-15T10:09:35;5.75;;;1.67;;
53961;SDS011;39868;53.398;6.564;2023-04-15T10:12:07;4.38;;;2.13;;
53961;SDS011;39868;53.398;6.564;2023-04-15T10:14:35;3.10;;;1.70;;
53961;SDS011;39868;53.398;6.564;2023-04-15T10:17:04;4.45;;;2.03;;
53961;SDS011;39868;53.398;6.564;2023-04-15T10:19:35;4.35;;;1.80;;
53961;SDS011;39868;53.398;6.564;2023-04-15T10:22:03;4.22;;;2.40;;
53961;SDS011;39868;53.398;6.564;2023-04-15T10:24:32;3.90;;;1.80;;
53961;SDS011;39868;53.398;6.564;2023-04-15T10:26:59;5.00;;;2.13;;
53961;SDS011;39868;53.398;6.564;2023-04-15T10:29:29;3.85;;;1.65;;
53961;SDS011;39868;53.398;6.564;2023-04-15T10:31:58;2.55;;;1.80;;
53961;SDS011;39868;53.398;6.564;2023-04-15T10:34:25;5.65;;;2.00;;
53961;SDS011;39868;53.398;6.564;2023-04-15T10:37:02;4.28;;;1.95;;
53961;SDS011;39868;53.398;6.564;2023-04-15T10:42:07;2.92;;;2.00;;
53961;SDS011;39868;53.398;6.564;2023-04-15T10:44:37;2.85;;;1.90;;
53961;SDS011;39868;53.398;6.564;2023-04-15T10:47:09;3.17;;;1.50;;
53961;SDS011;39868;53.398;6.564;2023-04-15T10:49:57;2.50;;;1.40;;
53961;SDS011;39868;53.398;6.564;2023-04-15T10:52:26;4.70;;;1.67;;
53961;SDS011;39868;53.398;6.564;2023-04-15T10:55:13;3.72;;;1.45;;
53961;SDS011;39868;53.398;6.564;2023-04-15T10:57:45;4.00;;;1.90;;
53961;SDS011;39868;53.398;6.564;2023-04-15T11:00:17;3.78;;;1.58;;
53961;SDS011;39868;53.398;6.564;2023-04-15T11:05:22;4.93;;;1.85;;
53961;SDS011;39868;53.398;6.564;2023-04-15T11:08:11;5.05;;;1.65;;
53961;SDS011;39868;53.398;6.564;2023-04-15T11:15:37;3.92;;;1.75;;
53961;SDS011;39868;53.398;6.564;2023-04-15T11:20:38;6.20;;;1.97;;
53961;SDS011;39868;53.398;6.564;2023-04-15T11:23:07;5.22;;;1.40;;
53961;SDS011;39868;53.398;6.564;2023-04-15T11:25:41;6.80;;;2.55;;
53961;SDS011;39868;53.398;6.564;2023-04-15T11:28:10;5.70;;;1.52;;
53961;SDS011;39868;53.398;6.564;2023-04-15T11:30:38;3.75;;;1.50;;
53961;SDS011;39868;53.398;6.564;2023-04-15T11:33:08;7.78;;;2.65;;
53961;SDS011;39868;53.398;6.564;2023-04-15T11:35:36;5.00;;;1.55;;
53961;SDS011;39868;53.398;6.564;2023-04-15T11:38:04;5.45;;;1.55;;
53961;SDS011;39868;53.398;6.564;2023-04-15T11:40:34;5.75;;;1.67;;
53961;SDS011;39868;53.398;6.564;2023-04-15T11:43:21;1.90;;;1.38;;
53961;SDS011;39868;53.398;6.564;2023-04-15T11:45:49;2.35;;;1.23;;
53961;SDS011;39868;53.398;6.564;2023-04-15T11:48:21;5.07;;;1.40;;
53961;SDS011;39868;53.398;6.564;2023-04-15T11:50:57;3.00;;;1.70;;
53961;SDS011;39868;53.398;6.564;2023-04-15T11:53:45;6.88;;;1.50;;
53961;SDS011;39868;53.398;6.564;2023-04-15T11:56:20;5.30;;;1.65;;
53961;SDS011;39868;53.398;6.564;2023-04-15T11:58:53;5.22;;;1.50;;
53961;SDS011;39868;53.398;6.564;2023-04-15T12:01:32;2.75;;;1.20;;
53961;SDS011;39868;53.398;6.564;2023-04-15T12:04:01;5.47;;;1.40;;
53961;SDS011;39868;53.398;6.564;2023-04-15T12:06:38;6.65;;;1.35;;
53961;SDS011;39868;53.398;6.564;2023-04-15T12:09:13;4.82;;;1.52;;
53961;SDS011;39868;53.398;6.564;2023-04-15T12:11:47;6.13;;;2.40;;
53961;SDS011;39868;53.398;6.564;2023-04-15T12:14:25;2.08;;;1.17;;
53961;SDS011;39868;53.398;6.564;2023-04-15T12:16:58;3.28;;;1.13;;
53961;SDS011;39868;53.398;6.564;2023-04-15T12:19:28;2.72;;;1.58;;
53961;SDS011;39868;53.398;6.564;2023-04-15T12:21:59;7.63;;;1.65;;
53961;SDS011;39868;53.398;6.564;2023-04-15T12:24:30;4.50;;;1.40;;
53961;SDS011;39868;53.398;6.564;2023-04-15T12:27:02;5.57;;;1.63;;
53961;SDS011;39868;53.398;6.564;2023-04-15T12:29:35;4.90;;;1.25;;
53961;SDS011;39868;53.398;6.564;2023-04-15T12:32:05;1.85;;;1.30;;
53961;SDS011;39868;53.398;6.564;2023-04-15T12:34:37;5.80;;;1.80;;
53961;SDS011;39868;53.398;6.564;2023-04-15T12:37:07;8.35;;;1.98;;
53961;SDS011;39868;53.398;6.564;2023-04-15T12:39:36;6.47;;;1.70;;
53961;SDS011;39868;53.398;6.564;2023-04-15T12:42:06;4.50;;;1.95;;
53961;SDS011;39868;53.398;6.564;2023-04-15T12:44:34;6.75;;;1.17;;
53961;SDS011;39868;53.398;6.564;2023-04-15T12:47:03;4.88;;;1.98;;
53961;SDS011;39868;53.398;6.564;2023-04-15T12:49:31;4.57;;;1.27;;
53961;SDS011;39868;53.398;6.564;2023-04-15T12:51:59;4.05;;;1.10;;
53961;SDS011;39868;53.398;6.564;2023-04-15T12:54:28;5.30;;;1.48;;
53961;SDS011;39868;53.398;6.564;2023-04-15T12:56:56;12.05;;;1.58;;
53961;SDS011;39868;53.398;6.564;2023-04-15T12:59:24;2.90;;;1.05;;
53961;SDS011;39868;53.398;6.564;2023-04-15T13:01:52;4.43;;;1.40;;
53961;SDS011;39868;53.398;6.564;2023-04-15T13:04:20;3.75;;;1.40;;
53961;SDS011;39868;53.398;6.564;2023-04-15T13:06:48;6.90;;;1.40;;
53961;SDS011;39868;53.398;6.564;2023-04-15T13:09:16;5.32;;;1.40;;
53961;SDS011;39868;53.398;6.564;2023-04-15T13:11:43;3.33;;;1.47;;
53961;SDS011;39868;53.398;6.564;2023-04-15T13:14:10;5.13;;;1.70;;
53961;SDS011;39868;53.398;6.564;2023-04-15T13:16:38;3.65;;;1.20;;
53961;SDS011;39868;53.398;6.564;2023-04-15T13:19:06;5.07;;;1.40;;
53961;SDS011;39868;53.398;6.564;2023-04-15T13:21:33;3.63;;;1.70;;
53961;SDS011;39868;53.398;6.564;2023-04-15T13:24:02;8.50;;;1.67;;
53961;SDS011;39868;53.398;6.564;2023-04-15T13:26:30;3.13;;;1.43;;
53961;SDS011;39868;53.398;6.564;2023-04-15T13:28:58;4.37;;;1.57;;
53961;SDS011;39868;53.398;6.564;2023-04-15T13:31:26;8.37;;;1.73;;
53961;SDS011;39868;53.398;6.564;2023-04-15T13:33:55;4.97;;;1.47;;
53961;SDS011;39868;53.398;6.564;2023-04-15T13:36:23;9.30;;;1.33;;
53961;SDS011;39868;53.398;6.564;2023-04-15T13:38:50;8.03;;;1.67;;
53961;SDS011;39868;53.398;6.564;2023-04-15T13:41:17;5.60;;;1.50;;
53961;SDS011;39868;53.398;6.564;2023-04-15T13:43:46;6.80;;;1.47;;
53961;SDS011;39868;53.398;6.564;2023-04-15T13:46:13;4.73;;;1.63;;
53961;SDS011;39868;53.398;6.564;2023-04-15T13:48:41;5.03;;;1.97;;
53961;SDS011;39868;53.398;6.564;2023-04-15T13:51:09;9.37;;;2.20;;
53961;SDS011;39868;53.398;6.564;2023-04-15T13:53:36;8.03;;;2.00;;
53961;SDS011;39868;53.398;6.564;2023-04-15T13:56:05;4.73;;;2.13;;
53961;SDS011;39868;53.398;6.564;2023-04-15T13:58:33;4.50;;;2.00;;
53961;SDS011;39868;53.398;6.564;2023-04-15T14:01:01;10.45;;;2.00;;
53961;SDS011;39868;53.398;6.564;2023-04-15T14:03:31;8.25;;;2.25;;
53961;SDS011;39868;53.398;6.564;2023-04-15T14:06:00;4.72;;;2.22;;
53961;SDS011;39868;53.398;6.564;2023-04-15T14:08:28;8.77;;;2.25;;
53961;SDS011;39868;53.398;6.564;2023-04-15T14:10:56;8.30;;;2.17;;
53961;SDS011;39868;53.398;6.564;2023-04-15T14:13:23;8.50;;;2.03;;
53961;SDS011;39868;53.398;6.564;2023-04-15T14:15:50;9.23;;;2.10;;
53961;SDS011;39868;53.398;6.564;2023-04-15T14:18:18;5.73;;;2.03;;
53961;SDS011;39868;53.398;6.564;2023-04-15T14:20:46;6.15;;;1.63;;
53961;SDS011;39868;53.398;6.564;2023-04-15T14:23:13;5.57;;;1.75;;
53961;SDS011;39868;53.398;6.564;2023-04-15T14:25:40;4.77;;;1.83;;
53961;SDS011;39868;53.398;6.564;2023-04-15T14:28:07;5.28;;;1.45;;
53961;SDS011;39868;53.398;6.564;2023-04-15T14:30:35;5.28;;;1.77;;
53961;SDS011;39868;53.398;6.564;2023-04-15T14:33:02;9.10;;;2.03;;
53961;SDS011;39868;53.398;6.564;2023-04-15T14:35:30;8.10;;;2.22;;
53961;SDS011;39868;53.398;6.564;2023-04-15T14:37:58;5.67;;;2.00;;
53961;SDS011;39868;53.398;6.564;2023-04-15T14:40:25;4.93;;;1.80;;
53961;SDS011;39868;53.398;6.564;2023-04-15T14:42:52;6.32;;;1.98;;
53961;SDS011;39868;53.398;6.564;2023-04-15T14:45:20;4.90;;;2.00;;
53961;SDS011;39868;53.398;6.564;2023-04-15T14:47:47;6.38;;;1.83;;
53961;SDS011;39868;53.398;6.564;2023-04-15T14:50:14;6.75;;;2.00;;
53961;SDS011;39868;53.398;6.564;2023-04-15T14:52:42;7.93;;;1.90;;
53961;SDS011;39868;53.398;6.564;2023-04-15T14:55:10;7.60;;;2.70;;
53961;SDS011;39868;53.398;6.564;2023-04-15T14:57:38;4.43;;;1.95;;
53961;SDS011;39868;53.398;6.564;2023-04-15T15:00:07;7.90;;;2.28;;
53961;SDS011;39868;53.398;6.564;2023-04-15T15:02:41;9.98;;;1.98;;
53961;SDS011;39868;53.398;6.564;2023-04-15T15:05:09;8.90;;;2.00;;
53961;SDS011;39868;53.398;6.564;2023-04-15T15:07:38;11.10;;;2.17;;
53961;SDS011;39868;53.398;6.564;2023-04-15T15:10:06;6.60;;;2.23;;